sensor_id;sensor_type;location;lat;lon;timestamp;pressure;altitude;pressure_sealevel;temperature;humidity
34586;BME280;20816;50.950;11.108;2022-09-09T00:03:48;97944.06;;;15.55;100.00
34586;BME280;20816;50.950;11.108;2022-09-09T00:06:33;97942.16;;;15.59;100.00
34586;BME280;20816;50.950;11.108;2022-09-09T00:09:19;97935.44;;;15.52;100.00
34586;BME280;20816;50.950;11.108;2022-09-09T00:14:23;97932.16;;;15.47;100.00
34586;BME280;20816;50.950;11.108;2022-09-09T00:16:56;97940.47;;;15.40;100.00
34586;BME280;20816;50.950;11.108;2022-09-09T00:19:45;97937.47;;;15.47;100.00
34586;BME280;20816;50.950;11.108;2022-09-09T00:22:19;97942.41;;;15.37;100.00
34586;BME280;20816;50.950;11.108;2022-09-09T00:24:51;97934.25;;;15.24;100.00
34586;BME280;20816;50.950;11.108;2022-09-09T00:27:27;97942.47;;;15.35;100.00
34586;BME280;20816;50.950;11.108;2022-09-09T00:30:00;97944.19;;;15.36;100.00
34586;BME280;20816;50.950;11.108;2022-09-09T00:32:30;97937.09;;;15.37;100.00
34586;BME280;20816;50.950;11.108;2022-09-09T00:37:37;97938.59;;;15.42;100.00
34586;BME280;20816;50.950;11.108;2022-09-09T00:40:18;97932.66;;;15.37;100.00
34586;BME280;20816;50.950;11.108;2022-09-09T00:42:59;97928.38;;;15.35;100.00
34586;BME280;20816;50.950;11.108;2022-09-09T00:48:18;97923.47;;;15.45;100.00
34586;BME280;20816;50.950;11.108;2022-09-09T00:51:05;97921.44;;;15.50;100.00
34586;BME280;20816;50.950;11.108;2022-09-09T00:56:26;97925.72;;;15.52;100.00
34586;BME280;20816;50.950;11.108;2022-09-09T01:01:38;97925.03;;;15.49;100.00
34586;BME280;20816;50.950;11.108;2022-09-09T01:04:13;97920.41;;;15.52;100.00
34586;BME280;20816;50.950;11.108;2022-09-09T01:06:43;97923.09;;;15.35;100.00
34586;BME280;20816;50.950;11.108;2022-09-09T01:12:23;97924.63;;;15.39;100.00
34586;BME280;20816;50.950;11.108;2022-09-09T01:14:56;97922.22;;;15.34;100.00
34586;BME280;20816;50.950;11.108;2022-09-09T01:17:33;97922.84;;;15.22;100.00
34586;BME280;20816;50.950;11.108;2022-09-09T01:26:09;97918.66;;;15.35;100.00
34586;BME280;20816;50.950;11.108;2022-09-09T01:28:40;97921.22;;;15.37;100.00
34586;BME280;20816;50.950;11.108;2022-09-09T01:31:11;97917.25;;;15.28;100.00
34586;BME280;20816;50.950;11.108;2022-09-09T01:33:41;97918.97;;;15.29;100.00
34586;BME280;20816;50.950;11.108;2022-09-09T01:36:10;97926.13;;;15.27;100.00
34586;BME280;20816;50.950;11.108;2022-09-09T01:38:40;97925.28;;;15.27;100.00
34586;BME280;20816;50.950;11.108;2022-09-09T01:41:07;97923.19;;;15.33;100.00
34586;BME280;20816;50.950;11.108;2022-09-09T01:43:33;97927.34;;;15.37;100.00
34586;BME280;20816;50.950;11.108;2022-09-09T01:46:01;97922.66;;;15.60;100.00
34586;BME280;20816;50.950;11.108;2022-09-09T01:48:29;97923.50;;;15.60;100.00
34586;BME280;20816;50.950;11.108;2022-09-09T01:50:56;97925.25;;;15.61;100.00
34586;BME280;20816;50.950;11.108;2022-09-09T01:53:23;97923.38;;;15.63;100.00
34586;BME280;20816;50.950;11.108;2022-09-09T01:56:21;97918.22;;;15.60;100.00
34586;BME280;20816;50.950;11.108;2022-09-09T01:59:06;97929.56;;;15.64;100.00
34586;BME280;20816;50.950;11.108;2022-09-09T02:01:46;97925.25;;;15.61;100.00
34586;BME280;20816;50.950;11.108;2022-09-09T02:04:48;97929.06;;;15.56;100.00
34586;BME280;20816;50.950;11.108;2022-09-09T02:10:08;97927.94;;;15.77;100.00
34586;BME280;20816;50.950;11.108;2022-09-09T02:12:41;97926.00;;;15.81;100.00
34586;BME280;20816;50.950;11.108;2022-09-09T02:15:19;97925.47;;;15.74;100.00
34586;BME280;20816;50.950;11.108;2022-09-09T02:17:49;97927.25;;;15.74;100.00
34586;BME280;20816;50.950;11.108;2022-09-09T02:20:18;97924.44;;;15.77;100.00
34586;BME280;20816;50.950;11.108;2022-09-09T02:22:48;97927.94;;;15.77;100.00
34586;BME280;20816;50.950;11.108;2022-09-09T02:25:19;97927.59;;;15.67;100.00
34586;BME280;20816;50.950;11.108;2022-09-09T02:27:47;97929.38;;;15.67;100.00
34586;BME280;20816;50.950;11.108;2022-09-09T02:30:18;97937.03;;;15.56;100.00
34586;BME280;20816;50.950;11.108;2022-09-09T02:32:48;97933.25;;;15.60;100.00
34586;BME280;20816;50.950;11.108;2022-09-09T02:35:20;97937.56;;;15.62;100.00
34586;BME280;20816;50.950;11.108;2022-09-09T02:37:51;97941.44;;;15.55;100.00
34586;BME280;20816;50.950;11.108;2022-09-09T02:40:19;97935.44;;;15.52;100.00
34586;BME280;20816;50.950;11.108;2022-09-09T02:42:48;97932.03;;;15.50;100.00
34586;BME280;20816;50.950;11.108;2022-09-09T02:45:21;97939.53;;;15.41;100.00
34586;BME280;20816;50.950;11.108;2022-09-09T02:50:42;97937.09;;;15.37;100.00
34586;BME280;20816;50.950;11.108;2022-09-09T02:53:17;97942.41;;;15.37;100.00
34586;BME280;20816;50.950;11.108;2022-09-09T02:55:51;97937.94;;;15.37;100.00
34586;BME280;20816;50.950;11.108;2022-09-09T02:58:22;97930.25;;;15.33;100.00
34586;BME280;20816;50.950;11.108;2022-09-09T03:00:50;97924.63;;;15.39;100.00
34586;BME280;20816;50.950;11.108;2022-09-09T03:03:17;97919.88;;;15.46;100.00
34586;BME280;20816;50.950;11.108;2022-09-09T03:05:45;97920.59;;;15.49;100.00
34586;BME280;20816;50.950;11.108;2022-09-09T03:08:12;97919.63;;;15.67;100.00
34586;BME280;20816;50.950;11.108;2022-09-09T03:10:39;97919.72;;;15.66;100.00
34586;BME280;20816;50.950;11.108;2022-09-09T03:13:06;97918.97;;;15.64;100.00
34586;BME280;20816;50.950;11.108;2022-09-09T03:15:34;97926.84;;;15.81;100.00
34586;BME280;20816;50.950;11.108;2022-09-09T03:18:00;97926.00;;;15.81;100.00
34586;BME280;20816;50.950;11.108;2022-09-09T03:20:28;97925.50;;;15.90;100.00
34586;BME280;20816;50.950;11.108;2022-09-09T03:22:56;97923.53;;;15.93;100.00
34586;BME280;20816;50.950;11.108;2022-09-09T03:25:23;97919.84;;;15.96;100.00
34586;BME280;20816;50.950;11.108;2022-09-09T03:27:52;97920.72;;;15.96;100.00
34586;BME280;20816;50.950;11.108;2022-09-09T03:30:24;97923.72;;;15.90;100.00
34586;BME280;20816;50.950;11.108;2022-09-09T03:32:51;97920.28;;;15.88;100.00
34586;BME280;20816;50.950;11.108;2022-09-09T03:35:19;97922.50;;;15.80;100.00
34586;BME280;20816;50.950;11.108;2022-09-09T03:37:46;97927.00;;;15.78;100.00
34586;BME280;20816;50.950;11.108;2022-09-09T03:40:13;97931.72;;;15.73;100.00
34586;BME280;20816;50.950;11.108;2022-09-09T03:42:40;97929.66;;;15.78;100.00
34586;BME280;20816;50.950;11.108;2022-09-09T03:45:08;97934.38;;;15.73;100.00
34586;BME280;20816;50.950;11.108;2022-09-09T03:47:36;97932.56;;;15.74;100.00
34586;BME280;20816;50.950;11.108;2022-09-09T03:50:04;97939.66;;;15.73;100.00
34586;BME280;20816;50.950;11.108;2022-09-09T03:52:35;97938.72;;;15.74;100.00
34586;BME280;20816;50.950;11.108;2022-09-09T03:55:03;97930.28;;;15.83;100.00
34586;BME280;20816;50.950;11.108;2022-09-09T03:57:29;97928.88;;;15.76;100.00
34586;BME280;20816;50.950;11.108;2022-09-09T03:59:56;97926.31;;;15.75;100.00
34586;BME280;20816;50.950;11.108;2022-09-09T04:02:22;97918.59;;;15.70;100.00
34586;BME280;20816;50.950;11.108;2022-09-09T04:04:50;97926.41;;;15.73;100.00
34586;BME280;20816;50.950;11.108;2022-09-09T04:07:16;97918.78;;;15.67;100.00
34586;BME280;20816;50.950;11.108;2022-09-09T04:09:43;97911.91;;;15.63;100.00
34586;BME280;20816;50.950;11.108;2022-09-09T04:12:10;97913.66;;;15.64;100.00
34586;BME280;20816;50.950;11.108;2022-09-09T04:14:39;97914.44;;;15.66;100.00
34586;BME280;20816;50.950;11.108;2022-09-09T04:17:06;97910.22;;;15.62;100.00
34586;BME280;20816;50.950;11.108;2022-09-09T04:19:32;97913.50;;;15.67;100.00
34586;BME280;20816;50.950;11.108;2022-09-09T04:21:59;97908.00;;;15.70;100.00
34586;BME280;20816;50.950;11.108;2022-09-09T04:24:26;97910.84;;;15.67;100.00
34586;BME280;20816;50.950;11.108;2022-09-09T04:26:55;97908.38;;;15.64;100.00
34586;BME280;20816;50.950;11.108;2022-09-09T04:29:22;97912.53;;;15.68;100.00
34586;BME280;20816;50.950;11.108;2022-09-09T04:31:48;97908.19;;;15.67;100.00
34586;BME280;20816;50.950;11.108;2022-09-09T04:34:15;97904.91;;;15.62;100.00
34586;BME280;20816;50.950;11.108;2022-09-09T04:36:41;97901.78;;;15.54;100.00
34586;BME280;20816;50.950;11.108;2022-09-09T04:39:08;97908.34;;;15.47;100.00
34586;BME280;20816;50.950;11.108;2022-09-09T04:41:35;97908.28;;;15.48;100.00
34586;BME280;20816;50.950;11.108;2022-09-09T04:44:01;97910.47;;;15.40;100.00
34586;BME280;20816;50.950;11.108;2022-09-09T04:46:29;97921.06;;;15.40;100.00
34586;BME280;20816;50.950;11.108;2022-09-09T04:48:55;97924.41;;;15.43;100.00
34586;BME280;20816;50.950;11.108;2022-09-09T04:51:22;97926.41;;;15.38;100.00
34586;BME280;20816;50.950;11.108;2022-09-09T04:53:49;97923.63;;;15.41;100.00
34586;BME280;20816;50.950;11.108;2022-09-09T04:56:17;97929.25;;;15.35;100.00
34586;BME280;20816;50.950;11.108;2022-09-09T04:58:44;97925.16;;;15.46;100.00
34586;BME280;20816;50.950;11.108;2022-09-09T05:01:14;97931.66;;;15.40;100.00
34586;BME280;20816;50.950;11.108;2022-09-09T05:03:42;97939.66;;;15.38;100.00
34586;BME280;20816;50.950;11.108;2022-09-09T05:06:20;97941.41;;;15.39;100.00
34586;BME280;20816;50.950;11.108;2022-09-09T05:08:47;97949.56;;;15.35;100.00
34586;BME280;20816;50.950;11.108;2022-09-09T05:11:17;97943.72;;;15.28;100.00
34586;BME280;20816;50.950;11.108;2022-09-09T05:13:45;97946.53;;;15.42;100.00
34586;BME280;20816;50.950;11.108;2022-09-09T05:16:13;97944.66;;;15.45;100.00
34586;BME280;20816;50.950;11.108;2022-09-09T05:18:41;97958.66;;;15.47;100.00
34586;BME280;20816;50.950;11.108;2022-09-09T05:21:12;97951.56;;;15.47;100.00
34586;BME280;20816;50.950;11.108;2022-09-09T05:23:39;97953.75;;;15.56;100.00
34586;BME280;20816;50.950;11.108;2022-09-09T05:26:07;97953.06;;;15.53;100.00
34586;BME280;20816;50.950;11.108;2022-09-09T05:28:39;97962.19;;;15.64;100.00
34586;BME280;20816;50.950;11.108;2022-09-09T05:31:09;97950.75;;;15.64;100.00
34586;BME280;20816;50.950;11.108;2022-09-09T05:33:38;97945.59;;;15.61;100.00
34586;BME280;20816;50.950;11.108;2022-09-09T05:36:08;97952.09;;;15.71;100.00
34586;BME280;20816;50.950;11.108;2022-09-09T05:38:37;97956.31;;;15.75;100.00
34586;BME280;20816;50.950;11.108;2022-09-09T05:41:04;97952.66;;;15.78;100.00
34586;BME280;20816;50.950;11.108;2022-09-09T05:43:31;97950.25;;;15.73;100.00
34586;BME280;20816;50.950;11.108;2022-09-09T05:46:07;97941.56;;;15.87;100.00
34586;BME280;20816;50.950;11.108;2022-09-09T05:48:38;97947.88;;;15.84;100.00
34586;BME280;20816;50.950;11.108;2022-09-09T05:51:07;97940.88;;;15.83;100.00
34586;BME280;20816;50.950;11.108;2022-09-09T05:53:35;97944.16;;;15.88;100.00
34586;BME280;20816;50.950;11.108;2022-09-09T05:56:06;97940.56;;;15.89;100.00
34586;BME280;20816;50.950;11.108;2022-09-09T05:58:34;97947.56;;;15.90;100.00
34586;BME280;20816;50.950;11.108;2022-09-09T06:01:10;97943.69;;;15.96;100.00
34586;BME280;20816;50.950;11.108;2022-09-09T06:03:39;97946.75;;;16.06;100.00
34586;BME280;20816;50.950;11.108;2022-09-09T06:06:18;97951.69;;;16.12;100.00
34586;BME280;20816;50.950;11.108;2022-09-09T06:08:50;97951.44;;;16.16;100.00
34586;BME280;20816;50.950;11.108;2022-09-09T06:11:23;97951.63;;;16.29;100.00
34586;BME280;20816;50.950;11.108;2022-09-09T06:13:50;97951.03;;;16.24;100.00
34586;BME280;20816;50.950;11.108;2022-09-09T06:16:23;97957.84;;;16.28;100.00
34586;BME280;20816;50.950;11.108;2022-09-09T06:18:51;97963.00;;;16.31;100.00
34586;BME280;20816;50.950;11.108;2022-09-09T06:21:37;97961.13;;;16.49;100.00
34586;BME280;20816;50.950;11.108;2022-09-09T06:24:05;97958.75;;;16.76;100.00
34586;BME280;20816;50.950;11.108;2022-09-09T06:26:38;97955.28;;;17.05;99.86
34586;BME280;20816;50.950;11.108;2022-09-09T06:29:09;97952.25;;;17.12;100.00
34586;BME280;20816;50.950;11.108;2022-09-09T06:31:37;97948.72;;;17.27;98.85
34586;BME280;20816;50.950;11.108;2022-09-09T06:34:05;97954.22;;;17.38;98.37
34586;BME280;20816;50.950;11.108;2022-09-09T06:36:37;97959.53;;;17.38;98.80
34586;BME280;20816;50.950;11.108;2022-09-09T06:39:05;97956.88;;;17.38;99.30
34586;BME280;20816;50.950;11.108;2022-09-09T06:41:39;97953.47;;;17.50;97.88
34586;BME280;20816;50.950;11.108;2022-09-09T06:44:06;97948.84;;;17.54;98.26
34586;BME280;20816;50.950;11.108;2022-09-09T06:46:33;97956.06;;;17.66;97.44
34586;BME280;20816;50.950;11.108;2022-09-09T06:49:00;97943.69;;;17.81;97.48
34586;BME280;20816;50.950;11.108;2022-09-09T06:51:30;97947.47;;;17.91;97.02
34586;BME280;20816;50.950;11.108;2022-09-09T06:53:58;97951.28;;;17.87;97.17
34586;BME280;20816;50.950;11.108;2022-09-09T06:58:59;97957.19;;;17.92;96.64
34586;BME280;20816;50.950;11.108;2022-09-09T07:01:29;97960.59;;;17.94;97.36
34586;BME280;20816;50.950;11.108;2022-09-09T07:03:57;97954.03;;;17.71;96.28
34586;BME280;20816;50.950;11.108;2022-09-09T07:06:32;97966.00;;;17.78;96.33
34586;BME280;20816;50.950;11.108;2022-09-09T07:09:09;97963.03;;;17.83;96.70
34586;BME280;20816;50.950;11.108;2022-09-09T07:11:41;97969.13;;;17.99;96.45
34586;BME280;20816;50.950;11.108;2022-09-09T07:14:09;97961.03;;;18.15;95.53
34586;BME280;20816;50.950;11.108;2022-09-09T07:16:41;97964.53;;;18.44;93.59
34586;BME280;20816;50.950;11.108;2022-09-09T07:19:09;97955.75;;;18.70;92.72
34586;BME280;20816;50.950;11.108;2022-09-09T07:21:35;97964.06;;;18.93;91.17
34586;BME280;20816;50.950;11.108;2022-09-09T07:24:02;97964.41;;;19.41;88.78
34586;BME280;20816;50.950;11.108;2022-09-09T07:26:30;97967.34;;;19.88;86.86
34586;BME280;20816;50.950;11.108;2022-09-09T07:28:57;97963.47;;;20.31;86.00
34586;BME280;20816;50.950;11.108;2022-09-09T07:31:26;97959.34;;;20.63;83.29
34586;BME280;20816;50.950;11.108;2022-09-09T07:33:53;97969.34;;;20.85;82.90
34586;BME280;20816;50.950;11.108;2022-09-09T07:36:26;97965.84;;;20.72;81.72
34586;BME280;20816;50.950;11.108;2022-09-09T07:39:04;97976.94;;;21.03;81.35
34586;BME280;20816;50.950;11.108;2022-09-09T07:41:34;97973.50;;;21.00;79.61
34586;BME280;20816;50.950;11.108;2022-09-09T07:44:07;97978.13;;;21.22;79.10
34586;BME280;20816;50.950;11.108;2022-09-09T07:46:34;97975.56;;;21.21;80.13
34586;BME280;20816;50.950;11.108;2022-09-09T07:49:02;97969.63;;;20.93;80.25
34586;BME280;20816;50.950;11.108;2022-09-09T07:51:32;97964.47;;;21.14;80.27
34586;BME280;20816;50.950;11.108;2022-09-09T07:54:06;97974.75;;;21.08;79.11
34586;BME280;20816;50.950;11.108;2022-09-09T07:56:34;97980.19;;;21.43;78.85
34586;BME280;20816;50.950;11.108;2022-09-09T07:59:00;97977.94;;;21.61;79.09
34586;BME280;20816;50.950;11.108;2022-09-09T08:01:30;97979.69;;;21.84;77.27
34586;BME280;20816;50.950;11.108;2022-09-09T08:03:59;97976.09;;;22.07;76.61
34586;BME280;20816;50.950;11.108;2022-09-09T08:06:29;97981.88;;;21.90;77.57
34586;BME280;20816;50.950;11.108;2022-09-09T08:08:56;97980.16;;;21.78;77.32
34586;BME280;20816;50.950;11.108;2022-09-09T08:11:24;97983.66;;;22.25;77.09
34586;BME280;20816;50.950;11.108;2022-09-09T08:13:52;97980.56;;;22.85;75.20
34586;BME280;20816;50.950;11.108;2022-09-09T08:16:29;97982.78;;;23.24;73.58
34586;BME280;20816;50.950;11.108;2022-09-09T08:18:57;97983.47;;;22.82;74.15
34586;BME280;20816;50.950;11.108;2022-09-09T08:21:27;97985.06;;;22.74;75.22
34586;BME280;20816;50.950;11.108;2022-09-09T08:23:56;97991.69;;;22.25;76.73
34586;BME280;20816;50.950;11.108;2022-09-09T08:26:28;97992.03;;;22.31;77.03
34586;BME280;20816;50.950;11.108;2022-09-09T08:28:57;98001.16;;;22.29;76.42
34586;BME280;20816;50.950;11.108;2022-09-09T08:31:27;97999.22;;;22.31;77.22
34586;BME280;20816;50.950;11.108;2022-09-09T08:33:55;97998.50;;;22.40;75.40
34586;BME280;20816;50.950;11.108;2022-09-09T08:36:24;97991.50;;;22.71;75.45
34586;BME280;20816;50.950;11.108;2022-09-09T08:38:54;97995.75;;;22.96;73.88
34586;BME280;20816;50.950;11.108;2022-09-09T08:44:25;97992.13;;;23.61;71.68
34586;BME280;20816;50.950;11.108;2022-09-09T08:50:11;98002.63;;;23.64;71.20
34586;BME280;20816;50.950;11.108;2022-09-09T08:58:14;98002.03;;;23.49;72.31
34586;BME280;20816;50.950;11.108;2022-09-09T09:12:11;98012.91;;;22.04;74.03
34586;BME280;20816;50.950;11.108;2022-09-09T09:14:42;98018.69;;;22.10;75.46
34586;BME280;20816;50.950;11.108;2022-09-09T09:17:14;98015.91;;;22.34;74.40
34586;BME280;20816;50.950;11.108;2022-09-09T09:19:42;98015.28;;;22.08;75.21
34586;BME280;20816;50.950;11.108;2022-09-09T09:22:23;98022.06;;;22.13;76.60
34586;BME280;20816;50.950;11.108;2022-09-09T09:30:17;98016.44;;;24.53;68.64
34586;BME280;20816;50.950;11.108;2022-09-09T09:33:15;98020.41;;;23.65;70.78
34586;BME280;20816;50.950;11.108;2022-09-09T09:35:44;98022.13;;;23.66;70.47
34586;BME280;20816;50.950;11.108;2022-09-09T09:38:23;98020.13;;;23.68;70.31
34586;BME280;20816;50.950;11.108;2022-09-09T09:41:10;98007.13;;;24.57;68.43
34586;BME280;20816;50.950;11.108;2022-09-09T09:43:40;98019.38;;;24.80;66.95
34586;BME280;20816;50.950;11.108;2022-09-09T09:46:20;98010.88;;;25.25;66.28
34586;BME280;20816;50.950;11.108;2022-09-09T09:49:04;98018.84;;;24.96;64.32
34586;BME280;20816;50.950;11.108;2022-09-09T09:51:35;98021.47;;;24.37;66.61
34586;BME280;20816;50.950;11.108;2022-09-09T09:54:29;98015.03;;;23.65;68.38
34586;BME280;20816;50.950;11.108;2022-09-09T09:57:13;98005.94;;;23.98;69.15
34586;BME280;20816;50.950;11.108;2022-09-09T09:59:41;98002.59;;;24.06;68.35
34586;BME280;20816;50.950;11.108;2022-09-09T10:02:17;98011.69;;;23.09;68.95
34586;BME280;20816;50.950;11.108;2022-09-09T10:04:45;98013.06;;;22.92;70.36
34586;BME280;20816;50.950;11.108;2022-09-09T10:07:22;98013.84;;;22.49;71.35
34586;BME280;20816;50.950;11.108;2022-09-09T10:09:54;98015.59;;;23.37;70.32
34586;BME280;20816;50.950;11.108;2022-09-09T10:12:29;98010.03;;;24.23;67.85
34586;BME280;20816;50.950;11.108;2022-09-09T10:15:21;97997.53;;;24.33;67.61
34586;BME280;20816;50.950;11.108;2022-09-09T10:26:46;97992.38;;;24.00;67.79
34586;BME280;20816;50.950;11.108;2022-09-09T10:29:40;97984.69;;;24.16;66.87
34586;BME280;20816;50.950;11.108;2022-09-09T10:35:26;97989.44;;;23.29;69.86
34586;BME280;20816;50.950;11.108;2022-09-09T10:38:18;97978.78;;;23.92;68.56
34586;BME280;20816;50.950;11.108;2022-09-09T10:49:07;97979.03;;;23.36;70.12
34586;BME280;20816;50.950;11.108;2022-09-09T10:57:39;97977.06;;;24.82;63.99
34586;BME280;20816;50.950;11.108;2022-09-09T11:02:42;97991.44;;;25.31;63.10
34586;BME280;20816;50.950;11.108;2022-09-09T11:05:19;97985.03;;;24.94;63.16
34586;BME280;20816;50.950;11.108;2022-09-09T11:07:54;97987.47;;;25.06;64.19
34586;BME280;20816;50.950;11.108;2022-09-09T11:13:22;97988.81;;;24.81;63.79
34586;BME280;20816;50.950;11.108;2022-09-09T11:15:59;97979.44;;;24.05;63.99
34586;BME280;20816;50.950;11.108;2022-09-09T11:18:29;97986.31;;;23.45;65.96
34586;BME280;20816;50.950;11.108;2022-09-09T11:20:59;97984.88;;;23.41;66.95
34586;BME280;20816;50.950;11.108;2022-09-09T11:23:39;97987.00;;;23.26;68.24
34586;BME280;20816;50.950;11.108;2022-09-09T11:26:12;97979.88;;;23.47;69.14
34586;BME280;20816;50.950;11.108;2022-09-09T11:29:14;97989.13;;;23.11;69.25
34586;BME280;20816;50.950;11.108;2022-09-09T11:32:05;97979.16;;;23.02;69.66
34586;BME280;20816;50.950;11.108;2022-09-09T11:35:05;97992.00;;;22.76;68.95
34586;BME280;20816;50.950;11.108;2022-09-09T11:40:30;97987.50;;;22.54;68.91
34586;BME280;20816;50.950;11.108;2022-09-09T11:45:36;97993.63;;;22.56;68.85
34586;BME280;20816;50.950;11.108;2022-09-09T11:48:04;97985.84;;;22.42;68.95
34586;BME280;20816;50.950;11.108;2022-09-09T11:50:36;97986.09;;;22.17;69.25
34586;BME280;20816;50.950;11.108;2022-09-09T11:53:18;97992.72;;;22.00;70.77
34586;BME280;20816;50.950;11.108;2022-09-09T11:56:07;97993.31;;;21.92;71.24
34586;BME280;20816;50.950;11.108;2022-09-09T11:58:41;98008.53;;;21.57;71.00
34586;BME280;20816;50.950;11.108;2022-09-09T12:04:46;98010.44;;;20.95;75.99
34586;BME280;20816;50.950;11.108;2022-09-09T12:10:01;97997.84;;;19.84;80.96
34586;BME280;20816;50.950;11.108;2022-09-09T12:12:32;97989.22;;;19.94;83.19
34586;BME280;20816;50.950;11.108;2022-09-09T12:17:30;97982.00;;;21.18;84.94
34586;BME280;20816;50.950;11.108;2022-09-09T12:23:22;97980.59;;;22.29;76.78
34586;BME280;20816;50.950;11.108;2022-09-09T12:31:41;97968.88;;;23.50;72.32
34586;BME280;20816;50.950;11.108;2022-09-09T12:40:22;97977.88;;;23.82;66.10
34586;BME280;20816;50.950;11.108;2022-09-09T12:42:49;97975.41;;;23.58;66.09
34586;BME280;20816;50.950;11.108;2022-09-09T12:50:25;97973.22;;;21.87;72.50
34586;BME280;20816;50.950;11.108;2022-09-09T12:52:55;97973.31;;;21.63;74.27
34586;BME280;20816;50.950;11.108;2022-09-09T12:55:28;97972.19;;;21.54;73.15
34586;BME280;20816;50.950;11.108;2022-09-09T12:57:57;97975.50;;;21.34;73.73
34586;BME280;20816;50.950;11.108;2022-09-09T13:00:26;97980.38;;;21.29;73.97
34586;BME280;20816;50.950;11.108;2022-09-09T13:02:58;97978.81;;;21.37;72.96
34586;BME280;20816;50.950;11.108;2022-09-09T13:05:38;97971.66;;;21.38;73.71
34586;BME280;20816;50.950;11.108;2022-09-09T13:08:08;97958.69;;;22.13;71.30
34586;BME280;20816;50.950;11.108;2022-09-09T13:10:51;97954.47;;;22.87;68.63
34586;BME280;20816;50.950;11.108;2022-09-09T13:13:35;97959.91;;;23.08;69.61
34586;BME280;20816;50.950;11.108;2022-09-09T13:16:03;97960.31;;;22.92;66.77
34586;BME280;20816;50.950;11.108;2022-09-09T13:18:33;97955.53;;;22.96;66.98
34586;BME280;20816;50.950;11.108;2022-09-09T13:21:01;97954.50;;;23.19;66.75
34586;BME280;20816;50.950;11.108;2022-09-09T13:23:36;97951.09;;;23.17;65.85
34586;BME280;20816;50.950;11.108;2022-09-09T13:26:30;97948.56;;;23.37;65.61
34586;BME280;20816;50.950;11.108;2022-09-09T13:29:14;97946.94;;;23.25;66.21
34586;BME280;20816;50.950;11.108;2022-09-09T13:31:44;97953.41;;;22.90;67.51
34586;BME280;20816;50.950;11.108;2022-09-09T13:37:05;97950.94;;;22.98;66.38
34586;BME280;20816;50.950;11.108;2022-09-09T13:39:33;97949.59;;;22.92;66.07
34586;BME280;20816;50.950;11.108;2022-09-09T13:42:02;97937.38;;;22.56;67.18
34586;BME280;20816;50.950;11.108;2022-09-09T13:44:36;97934.94;;;22.31;67.42
34586;BME280;20816;50.950;11.108;2022-09-09T13:47:06;97924.09;;;21.88;66.42
34586;BME280;20816;50.950;11.108;2022-09-09T13:49:43;97933.44;;;21.60;65.76
34586;BME280;20816;50.950;11.108;2022-09-09T13:52:14;97919.91;;;21.50;66.11
34586;BME280;20816;50.950;11.108;2022-09-09T13:54:41;97920.53;;;21.65;66.91
34586;BME280;20816;50.950;11.108;2022-09-09T13:57:34;97917.72;;;21.44;64.99
34586;BME280;20816;50.950;11.108;2022-09-09T14:00:01;97941.66;;;21.21;65.98
34586;BME280;20816;50.950;11.108;2022-09-09T14:02:32;97929.97;;;21.35;65.92
34586;BME280;20816;50.950;11.108;2022-09-09T14:04:59;97931.56;;;21.14;66.44
34586;BME280;20816;50.950;11.108;2022-09-09T14:07:25;97931.81;;;21.22;65.93
34586;BME280;20816;50.950;11.108;2022-09-09T14:09:53;97925.63;;;21.45;65.99
34586;BME280;20816;50.950;11.108;2022-09-09T14:12:20;97929.78;;;21.61;65.88
34586;BME280;20816;50.950;11.108;2022-09-09T14:14:46;97931.63;;;21.71;65.86
34586;BME280;20816;50.950;11.108;2022-09-09T14:17:13;97931.00;;;21.68;64.32
34586;BME280;20816;50.950;11.108;2022-09-09T14:19:41;97929.78;;;21.61;65.25
34586;BME280;20816;50.950;11.108;2022-09-09T14:22:08;97926.84;;;21.64;66.04
34586;BME280;20816;50.950;11.108;2022-09-09T14:24:35;97922.34;;;21.53;66.44
34586;BME280;20816;50.950;11.108;2022-09-09T14:27:02;97918.09;;;21.50;67.23
34586;BME280;20816;50.950;11.108;2022-09-09T14:29:29;97913.03;;;21.70;67.73
34586;BME280;20816;50.950;11.108;2022-09-09T14:31:55;97917.38;;;21.60;66.54
34586;BME280;20816;50.950;11.108;2022-09-09T14:34:22;97899.38;;;21.50;66.87
34586;BME280;20816;50.950;11.108;2022-09-09T14:36:49;97905.84;;;21.59;66.99
34586;BME280;20816;50.950;11.108;2022-09-09T14:39:16;97909.00;;;21.64;68.50
34586;BME280;20816;50.950;11.108;2022-09-09T14:41:43;97906.81;;;21.69;68.55
34586;BME280;20816;50.950;11.108;2022-09-09T14:44:10;97913.69;;;21.49;68.12
34586;BME280;20816;50.950;11.108;2022-09-09T14:46:37;97915.38;;;21.39;68.33
34586;BME280;20816;50.950;11.108;2022-09-09T14:49:04;97918.31;;;21.36;68.90
34586;BME280;20816;50.950;11.108;2022-09-09T14:51:31;97918.22;;;21.25;70.20
34586;BME280;20816;50.950;11.108;2022-09-09T14:53:59;97915.63;;;21.36;70.11
34586;BME280;20816;50.950;11.108;2022-09-09T14:56:28;97916.59;;;21.35;70.68
34586;BME280;20816;50.950;11.108;2022-09-09T14:58:57;97926.06;;;21.28;70.79
34586;BME280;20816;50.950;11.108;2022-09-09T15:01:25;97926.53;;;21.33;69.48
34586;BME280;20816;50.950;11.108;2022-09-09T15:03:59;97923.13;;;21.31;70.68
34586;BME280;20816;50.950;11.108;2022-09-09T15:06:28;97923.81;;;21.22;70.61
34586;BME280;20816;50.950;11.108;2022-09-09T15:08:56;97924.06;;;21.19;70.52
34586;BME280;20816;50.950;11.108;2022-09-09T15:11:26;97928.28;;;21.10;70.12
34586;BME280;20816;50.950;11.108;2022-09-09T15:13:54;97935.03;;;21.03;71.02
34586;BME280;20816;50.950;11.108;2022-09-09T15:16:23;97935.44;;;21.10;69.98
34586;BME280;20816;50.950;11.108;2022-09-09T15:18:52;97926.22;;;21.14;70.82